sensor_id;sensor_type;location;lat;lon;timestamp;P1;durP1;ratioP1;P2;durP2;ratioP2
4921;SDS011;16625;53.624;10.106;2022-09-12T00:01:07;14.53;;;5.53;;
4921;SDS011;16625;53.624;10.106;2022-09-12T00:03:35;8.93;;;5.60;;
4921;SDS011;16625;53.624;10.106;2022-09-12T00:06:06;6.83;;;5.17;;
4921;SDS011;16625;53.624;10.106;2022-09-12T00:08:34;6.17;;;5.17;;
4921;SDS011;16625;53.624;10.106;2022-09-12T00:11:03;6.00;;;4.97;;
4921;SDS011;16625;53.624;10.106;2022-09-12T00:13:31;6.77;;;4.70;;
4921;SDS011;16625;53.624;10.106;2022-09-12T00:15:59;6.10;;;4.93;;
4921;SDS011;16625;53.624;10.106;2022-09-12T00:18:27;8.20;;;5.53;;
4921;SDS011;16625;53.624;10.106;2022-09-12T00:20:54;5.77;;;4.87;;
4921;SDS011;16625;53.624;10.106;2022-09-12T00:23:21;5.23;;;4.70;;
4921;SDS011;16625;53.624;10.106;2022-09-12T00:25:48;6.40;;;5.40;;
4921;SDS011;16625;53.624;10.106;2022-09-12T00:28:15;6.33;;;5.73;;
4921;SDS011;16625;53.624;10.106;2022-09-12T00:30:43;16.40;;;5.90;;
4921;SDS011;16625;53.624;10.106;2022-09-12T00:33:12;5.30;;;4.77;;
4921;SDS011;16625;53.624;10.106;2022-09-12T00:35:42;7.83;;;5.20;;
4921;SDS011;16625;53.624;10.106;2022-09-12T00:38:10;6.47;;;5.77;;
4921;SDS011;16625;53.624;10.106;2022-09-12T00:40:37;6.63;;;5.67;;
4921;SDS011;16625;53.624;10.106;2022-09-12T00:43:05;10.50;;;5.20;;
4921;SDS011;16625;53.624;10.106;2022-09-12T00:45:35;6.90;;;4.90;;
4921;SDS011;16625;53.624;10.106;2022-09-12T00:48:02;6.13;;;5.20;;
4921;SDS011;16625;53.624;10.106;2022-09-12T00:50:30;8.07;;;5.50;;
4921;SDS011;16625;53.624;10.106;2022-09-12T00:53:01;5.67;;;4.33;;
4921;SDS011;16625;53.624;10.106;2022-09-12T00:55:31;5.97;;;5.10;;
4921;SDS011;16625;53.624;10.106;2022-09-12T00:58:02;5.67;;;5.00;;
4921;SDS011;16625;53.624;10.106;2022-09-12T01:00:32;11.30;;;5.23;;
4921;SDS011;16625;53.624;10.106;2022-09-12T01:03:00;6.20;;;4.37;;
4921;SDS011;16625;53.624;10.106;2022-09-12T01:05:30;4.80;;;4.30;;
4921;SDS011;16625;53.624;10.106;2022-09-12T01:08:01;11.63;;;5.80;;
4921;SDS011;16625;53.624;10.106;2022-09-12T01:10:29;6.37;;;5.20;;
4921;SDS011;16625;53.624;10.106;2022-09-12T01:12:58;8.50;;;4.63;;
4921;SDS011;16625;53.624;10.106;2022-09-12T01:15:25;6.07;;;4.73;;
4921;SDS011;16625;53.624;10.106;2022-09-12T01:17:57;6.03;;;4.47;;
4921;SDS011;16625;53.624;10.106;2022-09-12T01:20:40;5.67;;;4.50;;
4921;SDS011;16625;53.624;10.106;2022-09-12T01:23:26;5.13;;;4.40;;
4921;SDS011;16625;53.624;10.106;2022-09-12T01:26:28;6.13;;;4.90;;
4921;SDS011;16625;53.624;10.106;2022-09-12T01:29:30;8.63;;;5.60;;
4921;SDS011;16625;53.624;10.106;2022-09-12T01:32:11;9.07;;;5.63;;
4921;SDS011;16625;53.624;10.106;2022-09-12T01:34:45;5.50;;;4.90;;
4921;SDS011;16625;53.624;10.106;2022-09-12T01:37:20;5.40;;;4.80;;
4921;SDS011;16625;53.624;10.106;2022-09-12T01:39:58;5.00;;;4.10;;
4921;SDS011;16625;53.624;10.106;2022-09-12T01:42:31;6.10;;;4.77;;
4921;SDS011;16625;53.624;10.106;2022-09-12T01:45:05;6.60;;;4.67;;
4921;SDS011;16625;53.624;10.106;2022-09-12T01:47:38;8.27;;;5.73;;
4921;SDS011;16625;53.624;10.106;2022-09-12T01:50:06;6.70;;;4.40;;
4921;SDS011;16625;53.624;10.106;2022-09-12T01:52:38;15.80;;;5.97;;
4921;SDS011;16625;53.624;10.106;2022-09-12T01:55:11;5.23;;;4.10;;
4921;SDS011;16625;53.624;10.106;2022-09-12T01:57:42;7.73;;;6.67;;
4921;SDS011;16625;53.624;10.106;2022-09-12T02:00:13;5.63;;;5.03;;
4921;SDS011;16625;53.624;10.106;2022-09-12T02:02:43;5.77;;;4.57;;
4921;SDS011;16625;53.624;10.106;2022-09-12T02:05:18;5.63;;;4.63;;
4921;SDS011;16625;53.624;10.106;2022-09-12T02:07:50;7.73;;;5.13;;
4921;SDS011;16625;53.624;10.106;2022-09-12T02:10:19;5.80;;;5.10;;
4921;SDS011;16625;53.624;10.106;2022-09-12T02:12:51;5.00;;;4.30;;
4921;SDS011;16625;53.624;10.106;2022-09-12T02:15:22;5.43;;;4.40;;
4921;SDS011;16625;53.624;10.106;2022-09-12T02:17:53;5.93;;;5.03;;
4921;SDS011;16625;53.624;10.106;2022-09-12T02:20:25;4.60;;;3.90;;
4921;SDS011;16625;53.624;10.106;2022-09-12T02:22:54;7.00;;;4.27;;
4921;SDS011;16625;53.624;10.106;2022-09-12T02:25:23;6.20;;;4.87;;
4921;SDS011;16625;53.624;10.106;2022-09-12T02:27:52;5.00;;;4.40;;
4921;SDS011;16625;53.624;10.106;2022-09-12T02:30:22;6.70;;;5.27;;
4921;SDS011;16625;53.624;10.106;2022-09-12T02:32:55;7.73;;;5.27;;
4921;SDS011;16625;53.624;10.106;2022-09-12T02:35:30;6.87;;;5.20;;
4921;SDS011;16625;53.624;10.106;2022-09-12T02:38:01;11.30;;;6.27;;
4921;SDS011;16625;53.624;10.106;2022-09-12T02:40:32;6.53;;;4.60;;
4921;SDS011;16625;53.624;10.106;2022-09-12T02:43:01;6.47;;;5.10;;
4921;SDS011;16625;53.624;10.106;2022-09-12T02:45:29;7.50;;;5.53;;
4921;SDS011;16625;53.624;10.106;2022-09-12T02:48:01;7.80;;;5.00;;
4921;SDS011;16625;53.624;10.106;2022-09-12T02:50:31;6.93;;;4.83;;
4921;SDS011;16625;53.624;10.106;2022-09-12T02:52:58;6.17;;;4.87;;
4921;SDS011;16625;53.624;10.106;2022-09-12T02:55:29;8.00;;;5.40;;
4921;SDS011;16625;53.624;10.106;2022-09-12T02:57:57;9.20;;;5.73;;
4921;SDS011;16625;53.624;10.106;2022-09-12T03:00:25;6.50;;;5.27;;
4921;SDS011;16625;53.624;10.106;2022-09-12T03:02:58;5.17;;;4.50;;
4921;SDS011;16625;53.624;10.106;2022-09-12T03:05:39;6.00;;;5.40;;
4921;SDS011;16625;53.624;10.106;2022-09-12T03:11:13;6.20;;;5.00;;
4921;SDS011;16625;53.624;10.106;2022-09-12T03:13:52;7.00;;;4.47;;
4921;SDS011;16625;53.624;10.106;2022-09-12T03:16:31;6.50;;;4.80;;
4921;SDS011;16625;53.624;10.106;2022-09-12T03:19:08;5.90;;;5.13;;
4921;SDS011;16625;53.624;10.106;2022-09-12T03:21:43;7.10;;;6.00;;
4921;SDS011;16625;53.624;10.106;2022-09-12T03:24:17;6.10;;;5.20;;
4921;SDS011;16625;53.624;10.106;2022-09-12T03:26:51;7.10;;;5.50;;
4921;SDS011;16625;53.624;10.106;2022-09-12T03:29:21;8.53;;;5.10;;
4921;SDS011;16625;53.624;10.106;2022-09-12T03:31:50;25.07;;;5.70;;
4921;SDS011;16625;53.624;10.106;2022-09-12T03:34:21;5.30;;;4.80;;
4921;SDS011;16625;53.624;10.106;2022-09-12T03:36:50;7.10;;;5.20;;
4921;SDS011;16625;53.624;10.106;2022-09-12T03:39:19;5.90;;;5.10;;
4921;SDS011;16625;53.624;10.106;2022-09-12T03:41:48;7.33;;;5.20;;
4921;SDS011;16625;53.624;10.106;2022-09-12T03:44:15;8.53;;;5.47;;
4921;SDS011;16625;53.624;10.106;2022-09-12T03:46:41;5.67;;;5.07;;
4921;SDS011;16625;53.624;10.106;2022-09-12T03:49:08;8.73;;;5.00;;
4921;SDS011;16625;53.624;10.106;2022-09-12T03:51:37;9.03;;;5.37;;
4921;SDS011;16625;53.624;10.106;2022-09-12T03:54:04;5.77;;;4.93;;
4921;SDS011;16625;53.624;10.106;2022-09-12T03:56:31;9.33;;;5.33;;
4921;SDS011;16625;53.624;10.106;2022-09-12T03:58:59;6.50;;;5.30;;
4921;SDS011;16625;53.624;10.106;2022-09-12T04:01:26;8.50;;;5.60;;
4921;SDS011;16625;53.624;10.106;2022-09-12T04:03:53;7.23;;;5.30;;
4921;SDS011;16625;53.624;10.106;2022-09-12T04:06:20;6.90;;;4.63;;
4921;SDS011;16625;53.624;10.106;2022-09-12T04:08:49;8.60;;;5.40;;
4921;SDS011;16625;53.624;10.106;2022-09-12T04:11:19;7.10;;;5.33;;
4921;SDS011;16625;53.624;10.106;2022-09-12T04:13:47;8.93;;;5.97;;
4921;SDS011;16625;53.624;10.106;2022-09-12T04:16:14;8.17;;;5.80;;
4921;SDS011;16625;53.624;10.106;2022-09-12T04:18:41;8.30;;;5.63;;
4921;SDS011;16625;53.624;10.106;2022-09-12T04:21:09;5.90;;;5.27;;
4921;SDS011;16625;53.624;10.106;2022-09-12T04:23:37;6.80;;;5.73;;
4921;SDS011;16625;53.624;10.106;2022-09-12T04:26:06;7.10;;;5.37;;
4921;SDS011;16625;53.624;10.106;2022-09-12T04:28:34;6.77;;;5.50;;
4921;SDS011;16625;53.624;10.106;2022-09-12T04:31:01;7.30;;;5.20;;
4921;SDS011;16625;53.624;10.106;2022-09-12T04:33:31;7.20;;;5.97;;
4921;SDS011;16625;53.624;10.106;2022-09-12T04:36:01;7.27;;;6.10;;
4921;SDS011;16625;53.624;10.106;2022-09-12T04:38:29;7.93;;;5.67;;
4921;SDS011;16625;53.624;10.106;2022-09-12T04:40:56;7.37;;;5.60;;
4921;SDS011;16625;53.624;10.106;2022-09-12T04:43:24;7.50;;;6.27;;
4921;SDS011;16625;53.624;10.106;2022-09-12T04:45:51;8.37;;;6.17;;
4921;SDS011;16625;53.624;10.106;2022-09-12T04:48:18;8.10;;;6.10;;
4921;SDS011;16625;53.624;10.106;2022-09-12T04:50:44;13.00;;;5.80;;
4921;SDS011;16625;53.624;10.106;2022-09-12T04:53:11;11.27;;;5.80;;
4921;SDS011;16625;53.624;10.106;2022-09-12T04:55:38;8.83;;;5.53;;
4921;SDS011;16625;53.624;10.106;2022-09-12T04:58:05;12.20;;;6.20;;
4921;SDS011;16625;53.624;10.106;2022-09-12T05:00:33;6.60;;;5.50;;
4921;SDS011;16625;53.624;10.106;2022-09-12T05:03:00;7.87;;;6.13;;
4921;SDS011;16625;53.624;10.106;2022-09-12T05:05:27;8.37;;;6.40;;
4921;SDS011;16625;53.624;10.106;2022-09-12T05:07:53;6.80;;;5.97;;
4921;SDS011;16625;53.624;10.106;2022-09-12T05:10:20;8.93;;;6.50;;
4921;SDS011;16625;53.624;10.106;2022-09-12T05:12:47;8.20;;;6.80;;
4921;SDS011;16625;53.624;10.106;2022-09-12T05:15:14;8.43;;;6.10;;
4921;SDS011;16625;53.624;10.106;2022-09-12T05:17:43;12.27;;;7.00;;
4921;SDS011;16625;53.624;10.106;2022-09-12T05:20:10;8.37;;;6.93;;
4921;SDS011;16625;53.624;10.106;2022-09-12T05:22:37;9.63;;;6.63;;
4921;SDS011;16625;53.624;10.106;2022-09-12T05:25:05;6.97;;;6.27;;
4921;SDS011;16625;53.624;10.106;2022-09-12T05:27:32;9.50;;;6.50;;
4921;SDS011;16625;53.624;10.106;2022-09-12T05:29:59;7.70;;;5.87;;
4921;SDS011;16625;53.624;10.106;2022-09-12T05:32:29;9.70;;;6.17;;
4921;SDS011;16625;53.624;10.106;2022-09-12T05:34:57;7.00;;;5.80;;
4921;SDS011;16625;53.624;10.106;2022-09-12T05:37:24;6.63;;;5.87;;
4921;SDS011;16625;53.624;10.106;2022-09-12T05:39:51;7.20;;;6.10;;
4921;SDS011;16625;53.624;10.106;2022-09-12T05:42:18;9.07;;;6.30;;
4921;SDS011;16625;53.624;10.106;2022-09-12T05:44:45;7.10;;;6.10;;
4921;SDS011;16625;53.624;10.106;2022-09-12T05:47:12;10.80;;;6.03;;
4921;SDS011;16625;53.624;10.106;2022-09-12T05:49:40;12.30;;;6.77;;
4921;SDS011;16625;53.624;10.106;2022-09-12T05:52:10;9.20;;;6.90;;
4921;SDS011;16625;53.624;10.106;2022-09-12T05:54:37;9.43;;;7.00;;
4921;SDS011;16625;53.624;10.106;2022-09-12T05:57:05;10.80;;;8.13;;
4921;SDS011;16625;53.624;10.106;2022-09-12T05:59:34;9.43;;;7.17;;
4921;SDS011;16625;53.624;10.106;2022-09-12T06:02:01;10.43;;;6.73;;
4921;SDS011;16625;53.624;10.106;2022-09-12T06:04:28;16.80;;;7.07;;
4921;SDS011;16625;53.624;10.106;2022-09-12T06:06:55;10.60;;;7.60;;
4921;SDS011;16625;53.624;10.106;2022-09-12T06:09:23;14.00;;;7.67;;
4921;SDS011;16625;53.624;10.106;2022-09-12T06:11:50;16.00;;;9.27;;
4921;SDS011;16625;53.624;10.106;2022-09-12T06:14:17;11.40;;;7.70;;
4921;SDS011;16625;53.624;10.106;2022-09-12T06:16:44;11.60;;;8.10;;
4921;SDS011;16625;53.624;10.106;2022-09-12T06:19:13;12.80;;;8.73;;
4921;SDS011;16625;53.624;10.106;2022-09-12T06:21:41;12.70;;;9.43;;
4921;SDS011;16625;53.624;10.106;2022-09-12T06:24:08;15.00;;;8.90;;
4921;SDS011;16625;53.624;10.106;2022-09-12T06:26:37;12.70;;;8.77;;
4921;SDS011;16625;53.624;10.106;2022-09-12T06:29:03;15.23;;;10.83;;
4921;SDS011;16625;53.624;10.106;2022-09-12T06:31:32;17.40;;;10.70;;
4921;SDS011;16625;53.624;10.106;2022-09-12T06:34:00;16.40;;;10.53;;
4921;SDS011;16625;53.624;10.106;2022-09-12T06:36:29;15.30;;;11.17;;
4921;SDS011;16625;53.624;10.106;2022-09-12T06:38:58;21.60;;;12.00;;
4921;SDS011;16625;53.624;10.106;2022-09-12T06:41:26;18.57;;;12.70;;
4921;SDS011;16625;53.624;10.106;2022-09-12T06:43:55;19.03;;;13.77;;
4921;SDS011;16625;53.624;10.106;2022-09-12T06:46:23;18.13;;;13.00;;
4921;SDS011;16625;53.624;10.106;2022-09-12T06:48:50;15.73;;;12.83;;
4921;SDS011;16625;53.624;10.106;2022-09-12T06:51:18;23.83;;;12.30;;
4921;SDS011;16625;53.624;10.106;2022-09-12T06:53:45;16.47;;;12.10;;
4921;SDS011;16625;53.624;10.106;2022-09-12T06:56:13;16.33;;;12.20;;
4921;SDS011;16625;53.624;10.106;2022-09-12T06:58:43;14.20;;;11.80;;
4921;SDS011;16625;53.624;10.106;2022-09-12T07:01:13;29.70;;;15.43;;
4921;SDS011;16625;53.624;10.106;2022-09-12T07:03:40;26.70;;;13.50;;
4921;SDS011;16625;53.624;10.106;2022-09-12T07:06:09;27.37;;;12.60;;
4921;SDS011;16625;53.624;10.106;2022-09-12T07:08:37;24.07;;;11.70;;
4921;SDS011;16625;53.624;10.106;2022-09-12T07:11:08;20.00;;;12.53;;
4921;SDS011;16625;53.624;10.106;2022-09-12T07:13:37;18.67;;;13.27;;
4921;SDS011;16625;53.624;10.106;2022-09-12T07:16:04;17.03;;;13.33;;
4921;SDS011;16625;53.624;10.106;2022-09-12T07:18:33;20.23;;;13.03;;
4921;SDS011;16625;53.624;10.106;2022-09-12T07:21:02;21.07;;;13.93;;
4921;SDS011;16625;53.624;10.106;2022-09-12T07:23:31;18.37;;;13.70;;
4921;SDS011;16625;53.624;10.106;2022-09-12T07:25:58;18.60;;;12.47;;
4921;SDS011;16625;53.624;10.106;2022-09-12T07:28:26;18.80;;;13.73;;
4921;SDS011;16625;53.624;10.106;2022-09-12T07:30:55;17.47;;;14.00;;
4921;SDS011;16625;53.624;10.106;2022-09-12T07:33:23;16.37;;;11.10;;
4921;SDS011;16625;53.624;10.106;2022-09-12T07:35:54;15.77;;;13.43;;
4921;SDS011;16625;53.624;10.106;2022-09-12T07:38:25;19.57;;;11.77;;
4921;SDS011;16625;53.624;10.106;2022-09-12T07:40:52;18.70;;;12.43;;
4921;SDS011;16625;53.624;10.106;2022-09-12T07:43:19;17.27;;;12.80;;
4921;SDS011;16625;53.624;10.106;2022-09-12T07:45:45;15.40;;;11.03;;
4921;SDS011;16625;53.624;10.106;2022-09-12T07:48:12;13.77;;;10.43;;
4921;SDS011;16625;53.624;10.106;2022-09-12T07:50:39;18.30;;;10.10;;
4921;SDS011;16625;53.624;10.106;2022-09-12T07:53:07;13.37;;;9.90;;
4921;SDS011;16625;53.624;10.106;2022-09-12T07:55:35;13.13;;;9.60;;
4921;SDS011;16625;53.624;10.106;2022-09-12T07:58:02;22.93;;;9.33;;
4921;SDS011;16625;53.624;10.106;2022-09-12T08:00:28;10.37;;;8.60;;
4921;SDS011;16625;53.624;10.106;2022-09-12T08:02:59;13.60;;;8.00;;
4921;SDS011;16625;53.624;10.106;2022-09-12T08:05:28;8.67;;;7.40;;
4921;SDS011;16625;53.624;10.106;2022-09-12T08:07:55;8.77;;;7.33;;
4921;SDS011;16625;53.624;10.106;2022-09-12T08:10:23;6.30;;;5.70;;
4921;SDS011;16625;53.624;10.106;2022-09-12T08:12:50;7.80;;;6.23;;
4921;SDS011;16625;53.624;10.106;2022-09-12T08:15:16;7.30;;;6.07;;
4921;SDS011;16625;53.624;10.106;2022-09-12T08:17:44;6.20;;;5.57;;
4921;SDS011;16625;53.624;10.106;2022-09-12T08:20:11;6.50;;;5.53;;
4921;SDS011;16625;53.624;10.106;2022-09-12T08:22:37;5.83;;;4.70;;
4921;SDS011;16625;53.624;10.106;2022-09-12T08:25:05;6.67;;;5.17;;
4921;SDS011;16625;53.624;10.106;2022-09-12T08:27:34;5.17;;;4.53;;
4921;SDS011;16625;53.624;10.106;2022-09-12T08:30:01;7.97;;;5.07;;
4921;SDS011;16625;53.624;10.106;2022-09-12T08:32:29;7.67;;;4.10;;
4921;SDS011;16625;53.624;10.106;2022-09-12T08:34:56;7.30;;;5.17;;
4921;SDS011;16625;53.624;10.106;2022-09-12T08:37:23;6.93;;;5.43;;
4921;SDS011;16625;53.624;10.106;2022-09-12T08:39:49;7.83;;;4.60;;
4921;SDS011;16625;53.624;10.106;2022-09-12T08:42:18;5.20;;;4.40;;
4921;SDS011;16625;53.624;10.106;2022-09-12T08:44:59;5.80;;;4.93;;
4921;SDS011;16625;53.624;10.106;2022-09-12T08:47:35;4.10;;;3.70;;
4921;SDS011;16625;53.624;10.106;2022-09-12T08:50:09;4.60;;;3.63;;
4921;SDS011;16625;53.624;10.106;2022-09-12T08:52:43;10.07;;;4.77;;
4921;SDS011;16625;53.624;10.106;2022-09-12T08:55:23;4.67;;;3.77;;
4921;SDS011;16625;53.624;10.106;2022-09-12T08:57:55;10.63;;;3.67;;
4921;SDS011;16625;53.624;10.106;2022-09-12T09:00:25;6.10;;;4.07;;
4921;SDS011;16625;53.624;10.106;2022-09-12T09:03:12;4.47;;;4.07;;
4921;SDS011;16625;53.624;10.106;2022-09-12T09:06:02;3.60;;;3.03;;
4921;SDS011;16625;53.624;10.106;2022-09-12T09:08:44;3.20;;;2.90;;
4921;SDS011;16625;53.624;10.106;2022-09-12T09:11:22;3.00;;;2.50;;
4921;SDS011;16625;53.624;10.106;2022-09-12T09:14:04;4.00;;;2.87;;
4921;SDS011;16625;53.624;10.106;2022-09-12T09:17:02;3.40;;;3.10;;
4921;SDS011;16625;53.624;10.106;2022-09-12T09:19:36;3.53;;;2.87;;
4921;SDS011;16625;53.624;10.106;2022-09-12T09:22:11;9.10;;;2.97;;
4921;SDS011;16625;53.624;10.106;2022-09-12T09:24:42;4.47;;;2.73;;
4921;SDS011;16625;53.624;10.106;2022-09-12T09:27:14;3.80;;;3.03;;
4921;SDS011;16625;53.624;10.106;2022-09-12T09:29:54;5.10;;;3.00;;
4921;SDS011;16625;53.624;10.106;2022-09-12T09:32:25;3.30;;;3.00;;
4921;SDS011;16625;53.624;10.106;2022-09-12T09:34:53;3.60;;;2.93;;
4921;SDS011;16625;53.624;10.106;2022-09-12T09:37:23;2.87;;;2.40;;
4921;SDS011;16625;53.624;10.106;2022-09-12T09:40:04;5.07;;;3.17;;
4921;SDS011;16625;53.624;10.106;2022-09-12T09:42:43;3.20;;;2.50;;
4921;SDS011;16625;53.624;10.106;2022-09-12T09:45:18;3.10;;;2.50;;
4921;SDS011;16625;53.624;10.106;2022-09-12T09:47:49;3.57;;;2.90;;
4921;SDS011;16625;53.624;10.106;2022-09-12T09:50:19;3.50;;;2.90;;
4921;SDS011;16625;53.624;10.106;2022-09-12T09:52:46;4.30;;;2.70;;
4921;SDS011;16625;53.624;10.106;2022-09-12T09:55:18;3.20;;;2.57;;
4921;SDS011;16625;53.624;10.106;2022-09-12T09:57:48;3.43;;;2.70;;
4921;SDS011;16625;53.624;10.106;2022-09-12T10:00:20;3.27;;;2.03;;
4921;SDS011;16625;53.624;10.106;2022-09-12T10:03:00;3.03;;;2.47;;
4921;SDS011;16625;53.624;10.106;2022-09-12T10:05:46;6.10;;;2.90;;
4921;SDS011;16625;53.624;10.106;2022-09-12T10:08:22;5.73;;;2.63;;
4921;SDS011;16625;53.624;10.106;2022-09-12T10:10:57;2.73;;;2.10;;
4921;SDS011;16625;53.624;10.106;2022-09-12T10:13:34;3.30;;;2.10;;
4921;SDS011;16625;53.624;10.106;2022-09-12T10:16:03;2.90;;;2.30;;
4921;SDS011;16625;53.624;10.106;2022-09-12T10:18:38;3.03;;;2.63;;
4921;SDS011;16625;53.624;10.106;2022-09-12T10:21:13;3.50;;;2.40;;
4921;SDS011;16625;53.624;10.106;2022-09-12T10:23:43;2.10;;;1.83;;
4921;SDS011;16625;53.624;10.106;2022-09-12T10:26:12;2.43;;;1.83;;
4921;SDS011;16625;53.624;10.106;2022-09-12T10:28:42;3.10;;;2.30;;
4921;SDS011;16625;53.624;10.106;2022-09-12T10:31:13;2.80;;;1.90;;
4921;SDS011;16625;53.624;10.106;2022-09-12T10:33:44;2.50;;;1.90;;
4921;SDS011;16625;53.624;10.106;2022-09-12T10:36:16;8.93;;;1.90;;
4921;SDS011;16625;53.624;10.106;2022-09-12T10:38:47;2.30;;;1.97;;
4921;SDS011;16625;53.624;10.106;2022-09-12T10:41:15;2.97;;;2.40;;
4921;SDS011;16625;53.624;10.106;2022-09-12T10:43:43;2.20;;;1.80;;
4921;SDS011;16625;53.624;10.106;2022-09-12T10:46:21;2.83;;;2.33;;
4921;SDS011;16625;53.624;10.106;2022-09-12T10:49:11;4.50;;;2.07;;
4921;SDS011;16625;53.624;10.106;2022-09-12T10:51:45;2.77;;;2.33;;
4921;SDS011;16625;53.624;10.106;2022-09-12T10:54:12;3.67;;;2.30;;
4921;SDS011;16625;53.624;10.106;2022-09-12T10:56:44;3.47;;;2.30;;
4921;SDS011;16625;53.624;10.106;2022-09-12T10:59:24;4.67;;;2.53;;
4921;SDS011;16625;53.624;10.106;2022-09-12T11:02:00;3.50;;;2.60;;
4921;SDS011;16625;53.624;10.106;2022-09-12T11:04:43;5.17;;;2.40;;
4921;SDS011;16625;53.624;10.106;2022-09-12T11:07:26;2.87;;;2.07;;
4921;SDS011;16625;53.624;10.106;2022-09-12T11:10:05;3.90;;;2.30;;
4921;SDS011;16625;53.624;10.106;2022-09-12T11:12:45;3.30;;;2.60;;
4921;SDS011;16625;53.624;10.106;2022-09-12T11:15:24;7.60;;;3.40;;
4921;SDS011;16625;53.624;10.106;2022-09-12T11:18:04;5.90;;;2.60;;
4921;SDS011;16625;53.624;10.106;2022-09-12T11:26:37;3.80;;;2.97;;
4921;SDS011;16625;53.624;10.106;2022-09-12T11:29:11;3.33;;;2.57;;
4921;SDS011;16625;53.624;10.106;2022-09-12T11:32:00;3.50;;;2.67;;
4921;SDS011;16625;53.624;10.106;2022-09-12T11:34:40;8.03;;;3.27;;
4921;SDS011;16625;53.624;10.106;2022-09-12T11:37:21;6.73;;;3.23;;
4921;SDS011;16625;53.624;10.106;2022-09-12T11:40:02;3.70;;;2.63;;
4921;SDS011;16625;53.624;10.106;2022-09-12T11:42:38;10.73;;;3.17;;
4921;SDS011;16625;53.624;10.106;2022-09-12T11:45:11;3.67;;;2.87;;
4921;SDS011;16625;53.624;10.106;2022-09-12T11:47:40;4.07;;;2.30;;
4921;SDS011;16625;53.624;10.106;2022-09-12T11:50:14;9.13;;;3.80;;
4921;SDS011;16625;53.624;10.106;2022-09-12T11:52:47;4.70;;;3.00;;
4921;SDS011;16625;53.624;10.106;2022-09-12T11:55:18;4.47;;;2.50;;
4921;SDS011;16625;53.624;10.106;2022-09-12T11:57:51;2.87;;;2.17;;
4921;SDS011;16625;53.624;10.106;2022-09-12T12:00:20;2.87;;;2.40;;
4921;SDS011;16625;53.624;10.106;2022-09-12T12:02:50;4.53;;;2.60;;
4921;SDS011;16625;53.624;10.106;2022-09-12T12:05:24;5.20;;;2.55;;
4921;SDS011;16625;53.624;10.106;2022-09-12T12:07:54;3.40;;;2.60;;
4921;SDS011;16625;53.624;10.106;2022-09-12T12:10:28;4.67;;;2.20;;
4921;SDS011;16625;53.624;10.106;2022-09-12T12:12:59;5.00;;;2.67;;
4921;SDS011;16625;53.624;10.106;2022-09-12T12:15:28;3.97;;;2.17;;
4921;SDS011;16625;53.624;10.106;2022-09-12T12:18:02;4.67;;;3.00;;
4921;SDS011;16625;53.624;10.106;2022-09-12T12:20:32;3.30;;;2.37;;
4921;SDS011;16625;53.624;10.106;2022-09-12T12:23:00;5.53;;;2.50;;
4921;SDS011;16625;53.624;10.106;2022-09-12T12:25:39;2.70;;;2.20;;
4921;SDS011;16625;53.624;10.106;2022-09-12T12:31:16;2.90;;;2.50;;
4921;SDS011;16625;53.624;10.106;2022-09-12T12:36:46;9.60;;;2.30;;
4921;SDS011;16625;53.624;10.106;2022-09-12T12:48:43;2.60;;;2.17;;
4921;SDS011;16625;53.624;10.106;2022-09-12T12:51:47;4.47;;;2.40;;
4921;SDS011;16625;53.624;10.106;2022-09-12T12:54:26;2.57;;;1.93;;
4921;SDS011;16625;53.624;10.106;2022-09-12T12:57:04;2.50;;;2.17;;
4921;SDS011;16625;53.624;10.106;2022-09-12T12:59:44;3.33;;;2.47;;
4921;SDS011;16625;53.624;10.106;2022-09-12T13:02:15;7.67;;;2.40;;
4921;SDS011;16625;53.624;10.106;2022-09-12T13:04:47;3.47;;;2.20;;
4921;SDS011;16625;53.624;10.106;2022-09-12T13:07:19;2.53;;;2.20;;
4921;SDS011;16625;53.624;10.106;2022-09-12T13:09:55;2.77;;;2.13;;
4921;SDS011;16625;53.624;10.106;2022-09-12T13:12:24;3.17;;;2.10;;
4921;SDS011;16625;53.624;10.106;2022-09-12T13:14:53;2.63;;;2.17;;
4921;SDS011;16625;53.624;10.106;2022-09-12T13:17:26;3.20;;;2.40;;
4921;SDS011;16625;53.624;10.106;2022-09-12T13:20:05;2.90;;;2.00;;
4921;SDS011;16625;53.624;10.106;2022-09-12T13:22:44;5.13;;;2.33;;
4921;SDS011;16625;53.624;10.106;2022-09-12T13:25:19;3.63;;;2.63;;
4921;SDS011;16625;53.624;10.106;2022-09-12T13:28:02;2.57;;;2.27;;
4921;SDS011;16625;53.624;10.106;2022-09-12T13:30:31;6.40;;;2.53;;
4921;SDS011;16625;53.624;10.106;2022-09-12T13:33:03;2.87;;;2.17;;
4921;SDS011;16625;53.624;10.106;2022-09-12T13:35:39;3.50;;;2.13;;
4921;SDS011;16625;53.624;10.106;2022-09-12T13:38:28;2.63;;;2.40;;
4921;SDS011;16625;53.624;10.106;2022-09-12T13:41:12;2.70;;;2.30;;
4921;SDS011;16625;53.624;10.106;2022-09-12T13:43:46;2.90;;;2.33;;
4921;SDS011;16625;53.624;10.106;2022-09-12T13:46:14;2.90;;;2.47;;
4921;SDS011;16625;53.624;10.106;2022-09-12T13:48:44;3.27;;;1.90;;
4921;SDS011;16625;53.624;10.106;2022-09-12T13:51:18;4.33;;;2.53;;
4921;SDS011;16625;53.624;10.106;2022-09-12T13:53:49;3.23;;;2.20;;
4921;SDS011;16625;53.624;10.106;2022-09-12T13:56:20;3.97;;;2.40;;
4921;SDS011;16625;53.624;10.106;2022-09-12T13:58:50;3.10;;;2.50;;
4921;SDS011;16625;53.624;10.106;2022-09-12T14:01:19;2.63;;;2.03;;
4921;SDS011;16625;53.624;10.106;2022-09-12T14:03:48;3.00;;;1.70;;
4921;SDS011;16625;53.624;10.106;2022-09-12T14:06:44;3.90;;;2.10;;
4921;SDS011;16625;53.624;10.106;2022-09-12T14:09:14;3.27;;;2.30;;
4921;SDS011;16625;53.624;10.106;2022-09-12T14:11:46;2.60;;;2.00;;
4921;SDS011;16625;53.624;10.106;2022-09-12T14:14:17;4.20;;;2.00;;
4921;SDS011;16625;53.624;10.106;2022-09-12T14:16:55;5.63;;;2.50;;
4921;SDS011;16625;53.624;10.106;2022-09-12T14:19:22;4.10;;;2.40;;
4921;SDS011;16625;53.624;10.106;2022-09-12T14:21:52;7.87;;;2.20;;
4921;SDS011;16625;53.624;10.106;2022-09-12T14:24:20;10.80;;;2.30;;
4921;SDS011;16625;53.624;10.106;2022-09-12T14:26:48;3.20;;;2.57;;
4921;SDS011;16625;53.624;10.106;2022-09-12T14:29:17;2.70;;;2.10;;
4921;SDS011;16625;53.624;10.106;2022-09-12T14:31:45;3.70;;;2.10;;
4921;SDS011;16625;53.624;10.106;2022-09-12T14:34:13;4.63;;;2.20;;
4921;SDS011;16625;53.624;10.106;2022-09-12T14:36:42;3.10;;;2.10;;
4921;SDS011;16625;53.624;10.106;2022-09-12T14:39:18;2.80;;;2.30;;
4921;SDS011;16625;53.624;10.106;2022-09-12T14:41:48;2.93;;;2.53;;
4921;SDS011;16625;53.624;10.106;2022-09-12T14:44:18;3.77;;;2.47;;
4921;SDS011;16625;53.624;10.106;2022-09-12T14:46:48;5.93;;;2.57;;
4921;SDS011;16625;53.624;10.106;2022-09-12T14:49:17;3.77;;;2.53;;
4921;SDS011;16625;53.624;10.106;2022-09-12T14:51:51;3.27;;;2.50;;
4921;SDS011;16625;53.624;10.106;2022-09-12T14:54:40;3.70;;;2.40;;
4921;SDS011;16625;53.624;10.106;2022-09-12T14:57:31;4.23;;;2.33;;
4921;SDS011;16625;53.624;10.106;2022-09-12T15:02:48;3.13;;;2.40;;
4921;SDS011;16625;53.624;10.106;2022-09-12T15:05:17;3.83;;;2.80;;
4921;SDS011;16625;53.624;10.106;2022-09-12T15:07:50;3.83;;;2.27;;
4921;SDS011;16625;53.624;10.106;2022-09-12T15:10:22;2.77;;;2.13;;
4921;SDS011;16625;53.624;10.106;2022-09-12T15:13:11;3.97;;;2.60;;
4921;SDS011;16625;53.624;10.106;2022-09-12T15:15:50;3.17;;;2.40;;
4921;SDS011;16625;53.624;10.106;2022-09-12T15:18:22;4.80;;;2.60;;
4921;SDS011;16625;53.624;10.106;2022-09-12T15:20:50;4.73;;;2.47;;
4921;SDS011;16625;53.624;10.106;2022-09-12T15:23:22;4.40;;;2.53;;
4921;SDS011;16625;53.624;10.106;2022-09-12T15:25:56;3.60;;;2.67;;
4921;SDS011;16625;53.624;10.106;2022-09-12T15:28:23;2.37;;;1.80;;
4921;SDS011;16625;53.624;10.106;2022-09-12T15:30:51;3.40;;;3.00;;
4921;SDS011;16625;53.624;10.106;2022-09-12T15:33:19;4.20;;;2.60;;
4921;SDS011;16625;53.624;10.106;2022-09-12T15:35:48;3.70;;;2.37;;